Time;durP1;ratioP1;P1;durP2;ratioP2;P2;SDS_P1;SDS_P2;PMS_P1;PMS_P2;Temp;Humidity;BMP_temperature;BMP_pressure;BME280_temperature;BME280_humidity;BME280_pressure;Samples;Min_cycle;Max_cycle;Signal;HPM_P1;HPM_P2
2024/01/22 00:00:19;;;;;;;;;;;;;;;19.89;37.92;101180.84;2082783;28;6347;-68
2024/01/22 00:01:20;;;;;;;;;;;;;;;19.90;37.71;101185.19;2082077;28;2134;-68
2024/01/22 00:02:22;;;;;;;;;;;;;;;19.89;37.83;101183.72;2084855;28;2153;-68
2024/01/22 00:03:23;;;;;;;;;;;;;;;19.89;37.69;101192.34;2082965;28;2024;-68
2024/01/22 00:04:24;;;;;;;;;;;;;;;19.90;37.85;101193.09;2099268;28;2142;-68
2024/01/22 00:05:26;;;;;;;;;;;;;;;19.90;37.70;101193.81;2099580;28;2183;-68
2024/01/22 00:06:29;;;;;;;;;;;;;;;19.90;37.75;101178.72;2084458;28;2086;-68
2024/01/22 00:07:31;;;;;;;;;;;;;;;19.90;37.76;101188.06;2086159;28;2057;-68
2024/01/22 00:08:32;;;;;;;;;;;;;;;19.89;37.76;101192.34;2086973;28;1564;-68
2024/01/22 00:09:34;;;;;;;;;;;;;;;19.87;37.58;101184.34;2088334;28;1535;-68
2024/01/22 00:10:35;;;;;;;;;;;;;;;19.89;37.66;101186.59;2084133;28;2089;-68
2024/01/22 00:11:37;;;;;;;;;;;;;;;19.87;37.74;101184.34;2086134;28;2058;-68
2024/01/22 00:12:38;;;;;;;;;;;;;;;19.88;37.76;101187.97;2082473;28;2150;-68
2024/01/22 00:13:39;;;;;;;;;;;;;;;19.87;37.64;101184.34;2083061;28;1537;-68
2024/01/22 00:14:41;;;;;;;;;;;;;;;19.87;37.49;101184.34;2081249;28;2233;-68
2024/01/22 00:15:42;;;;;;;;;;;;;;;19.87;37.43;101175.00;2082040;28;2128;-68
2024/01/22 00:16:44;;;;;;;;;;;;;;;19.86;37.42;101176.38;2086520;28;1494;-68
2024/01/22 00:17:46;;;;;;;;;;;;;;;19.87;37.57;101177.88;2085403;28;1888;-68
2024/01/22 00:18:48;;;;;;;;;;;;;;;19.86;37.51;101179.25;2086627;28;1636;-68
2024/01/22 00:19:50;;;;;;;;;;;;;;;19.86;37.67;101164.88;2085415;28;2129;-68
2024/01/22 00:20:51;;;;;;;;;;;;;;;19.85;37.80;101158.38;2084836;28;2384;-68
2024/01/22 00:21:53;;;;;;;;;;;;;;;19.85;37.82;101158.38;2084469;28;1963;-68
2024/01/22 00:22:54;;;;;;;;;;;;;;;19.86;37.77;101159.16;2085575;28;1492;-68
2024/01/22 00:23:56;;;;;;;;;;;;;;;19.85;37.85;101146.13;2082024;28;2025;-68
2024/01/22 00:24:58;;;;;;;;;;;;;;;19.84;37.85;101136.78;2087801;28;1549;-68
2024/01/22 00:25:59;;;;;;;;;;;;;;;19.84;37.78;101136.03;2084492;28;2059;-68
2024/01/22 00:27:00;;;;;;;;;;;;;;;19.84;37.91;101125.28;2085108;28;1920;-68
2024/01/22 00:28:02;;;;;;;;;;;;;;;19.84;37.90;101128.16;2084014;28;1944;-68
2024/01/22 00:29:03;;;;;;;;;;;;;;;19.84;37.99;101128.16;2083203;28;1787;-68
2024/01/22 00:30:06;;;;;;;;;;;;;;;19.84;37.98;101121.69;2086549;28;6244;-67
2024/01/22 00:31:07;;;;;;;;;;;;;;;19.85;37.92;101114.53;2084757;28;1565;-68
2024/01/22 00:32:09;;;;;;;;;;;;;;;19.86;38.02;101113.16;2087208;28;1633;-69
2024/01/22 00:33:10;;;;;;;;;;;;;;;19.86;38.00;101113.91;2083411;28;2048;-68
2024/01/22 00:34:12;;;;;;;;;;;;;;;19.86;38.04;101111.03;2088783;28;1853;-68
2024/01/22 00:35:13;;;;;;;;;;;;;;;19.87;37.98;101106.00;2087594;28;1610;-68
2024/01/22 00:36:14;;;;;;;;;;;;;;;19.87;38.01;101108.88;2088067;28;1693;-68
2024/01/22 00:37:16;;;;;;;;;;;;;;;19.86;37.94;101108.16;2085044;28;2127;-68
2024/01/22 00:38:17;;;;;;;;;;;;;;;19.87;37.92;101103.16;2084137;28;1713;-68
2024/01/22 00:39:19;;;;;;;;;;;;;;;19.88;37.97;101107.50;2087170;28;1863;-68
2024/01/22 00:40:20;;;;;;;;;;;;;;;19.88;37.90;101107.50;2084086;28;1977;-68
2024/01/22 00:41:22;;;;;;;;;;;;;;;19.88;37.84;101104.63;2082550;28;2103;-68
2024/01/22 00:42:23;;;;;;;;;;;;;;;19.89;37.90;101100.38;2087132;28;2142;-68
2024/01/22 00:43:24;;;;;;;;;;;;;;;19.88;37.93;101107.50;2083090;28;1992;-68
2024/01/22 00:44:26;;;;;;;;;;;;;;;19.87;38.07;101094.53;2085793;28;2025;-68
2024/01/22 00:45:27;;;;;;;;;;;;;;;19.88;37.92;101099.63;2083051;28;2055;-68
2024/01/22 00:46:29;;;;;;;;;;;;;;;19.87;37.99;101091.66;2087594;28;1598;-68
2024/01/22 00:47:32;;;;;;;;;;;;;;;19.87;38.05;101097.41;2086197;28;2051;-68
2024/01/22 00:48:33;;;;;;;;;;;;;;;19.86;37.98;101107.41;2087813;28;2040;-68
2024/01/22 00:49:35;;;;;;;;;;;;;;;19.86;37.91;101096.66;2085205;28;1931;-68
2024/01/22 00:50:36;;;;;;;;;;;;;;;19.86;37.94;101095.91;2086093;28;1641;-68
2024/01/22 00:51:38;;;;;;;;;;;;;;;19.87;38.02;101103.16;2083609;28;2112;-68
2024/01/22 00:52:39;;;;;;;;;;;;;;;19.86;37.99;101095.91;2084205;28;2178;-68
2024/01/22 00:53:41;;;;;;;;;;;;;;;19.86;38.10;101093.03;2085509;28;2253;-68
2024/01/22 00:54:42;;;;;;;;;;;;;;;19.86;38.00;101090.16;2083638;28;2178;-68
2024/01/22 00:55:44;;;;;;;;;;;;;;;19.85;38.00;101075.03;2088163;28;1712;-68
2024/01/22 00:56:45;;;;;;;;;;;;;;;19.84;38.10;101081.44;2087880;28;1570;-68
2024/01/22 00:57:47;;;;;;;;;;;;;;;19.84;37.99;101076.44;2082533;28;2187;-68
2024/01/22 00:58:48;;;;;;;;;;;;;;;19.84;38.03;101061.31;2084146;28;2047;-67
2024/01/22 00:59:49;;;;;;;;;;;;;;;19.85;38.04;101059.94;2082298;28;2412;-68
2024/01/22 01:00:51;;;;;;;;;;;;;;;19.85;38.04;101068.56;2082507;28;6091;-68
2024/01/22 01:01:52;;;;;;;;;;;;;;;19.84;38.09;101064.19;2082788;28;2096;-68
2024/01/22 01:02:54;;;;;;;;;;;;;;;19.84;38.06;101064.19;2080893;28;2162;-68
2024/01/22 01:03:56;;;;;;;;;;;;;;;19.84;37.98;101064.19;2085345;28;2074;-68
2024/01/22 01:04:57;;;;;;;;;;;;;;;19.83;37.97;101056.94;2086058;28;1620;-68
2024/01/22 01:05:59;;;;;;;;;;;;;;;19.83;38.13;101063.44;2086038;28;1657;-68
2024/01/22 01:07:01;;;;;;;;;;;;;;;19.83;37.99;101051.19;2083039;28;2027;-68
2024/01/22 01:08:02;;;;;;;;;;;;;;;19.83;38.07;101054.06;2080889;28;2337;-68
2024/01/22 01:09:04;;;;;;;;;;;;;;;19.84;38.07;101055.56;2083474;28;1666;-68
2024/01/22 01:10:05;;;;;;;;;;;;;;;19.84;37.96;101058.44;2087623;28;1659;-68
2024/01/22 01:11:07;;;;;;;;;;;;;;;19.84;37.95;101058.44;2085167;28;1702;-68
2024/01/22 01:12:08;;;;;;;;;;;;;;;19.83;38.05;101054.06;2084129;28;1685;-68
2024/01/22 01:13:10;;;;;;;;;;;;;;;19.83;37.99;101051.19;2083085;28;2132;-68
2024/01/22 01:14:11;;;;;;;;;;;;;;;19.83;38.09;101062.69;2086842;28;2334;-68
2024/01/22 01:15:12;;;;;;;;;;;;;;;19.84;37.94;101058.44;2086524;28;2055;-68
2024/01/22 01:16:14;;;;;;;;;;;;;;;19.85;37.92;101062.81;2083781;28;2082;-68
2024/01/22 01:17:15;;;;;;;;;;;;;;;19.85;38.06;101065.69;2081932;28;1673;-68
2024/01/22 01:18:17;;;;;;;;;;;;;;;19.87;38.02;101057.16;2084505;28;2154;-68
2024/01/22 01:19:18;;;;;;;;;;;;;;;19.86;38.03;101067.19;2085633;28;2047;-68
2024/01/22 01:20:20;;;;;;;;;;;;;;;19.86;38.08;101058.56;2083769;28;1910;-68
2024/01/22 01:21:22;;;;;;;;;;;;;;;19.85;38.08;101054.19;2086983;28;1875;-68
2024/01/22 01:22:24;;;;;;;;;;;;;;;19.86;38.02;101056.41;2085200;28;1647;-68
2024/01/22 01:23:25;;;;;;;;;;;;;;;19.86;37.95;101065.03;2085339;28;2044;-68
2024/01/22 01:24:27;;;;;;;;;;;;;;;19.87;38.02;101051.41;2086247;28;2047;-68
2024/01/22 01:25:28;;;;;;;;;;;;;;;19.86;37.94;101047.06;2082149;28;2012;-68
2024/01/22 01:26:29;;;;;;;;;;;;;;;19.87;38.02;101051.41;2085892;28;1883;-68
2024/01/22 01:27:31;;;;;;;;;;;;;;;19.86;37.97;101042.06;2081381;28;2081;-68
2024/01/22 01:28:32;;;;;;;;;;;;;;;19.87;37.98;101045.66;2085024;28;1785;-68
2024/01/22 01:29:34;;;;;;;;;;;;;;;19.85;38.00;101039.81;2083950;28;1565;-68
2024/01/22 01:30:35;;;;;;;;;;;;;;;19.85;38.14;101039.81;2084647;28;6133;-68
2024/01/22 01:31:37;;;;;;;;;;;;;;;19.85;38.09;101031.19;2084041;28;1847;-68
2024/01/22 01:32:39;;;;;;;;;;;;;;;19.85;38.12;101042.69;2087888;28;1650;-68
2024/01/22 01:33:40;;;;;;;;;;;;;;;19.86;38.04;101032.69;2081485;28;2408;-68
2024/01/22 01:34:42;;;;;;;;;;;;;;;19.85;38.02;101025.44;2086874;28;1610;-68
2024/01/22 01:35:44;;;;;;;;;;;;;;;19.84;38.18;101029.72;2087305;28;1851;-68
2024/01/22 01:36:46;;;;;;;;;;;;;;;19.84;38.04;101024.69;2087356;28;1562;-68
2024/01/22 01:37:47;;;;;;;;;;;;;;;19.83;38.11;101023.19;2088293;28;2111;-68
2024/01/22 01:38:49;;;;;;;;;;;;;;;19.84;38.16;101023.97;2085018;28;2166;-67
2024/01/22 01:39:50;;;;;;;;;;;;;;;19.83;38.17;101017.44;2084189;28;2080;-68
2024/01/22 01:40:52;;;;;;;;;;;;;;;19.83;38.19;101028.22;2085888;28;1970;-69
2024/01/22 01:41:53;;;;;;;;;;;;;;;19.83;38.07;101016.72;2083488;28;1946;-68
2024/01/22 01:42:55;;;;;;;;;;;;;;;19.82;38.11;101004.47;2078849;28;2119;-68
2024/01/22 01:43:56;;;;;;;;;;;;;;;19.82;38.16;100992.25;2082837;28;2069;-68
2024/01/22 01:44:58;;;;;;;;;;;;;;;19.82;38.12;100992.25;2082686;28;1717;-68
2024/01/22 01:45:59;;;;;;;;;;;;;;;19.81;38.18;100985.00;2085586;28;2099;-68
2024/01/22 01:47:01;;;;;;;;;;;;;;;19.82;38.14;100980.75;2086192;28;1970;-68
2024/01/22 01:48:02;;;;;;;;;;;;;;;19.80;38.13;100967.03;2082183;28;2129;-68
2024/01/22 01:49:04;;;;;;;;;;;;;;;19.80;38.14;100972.03;2088062;28;1879;-68
2024/01/22 01:50:05;;;;;;;;;;;;;;;19.81;38.13;100982.13;2085477;28;1681;-68
2024/01/22 01:51:07;;;;;;;;;;;;;;;19.81;38.13;100982.13;2084555;28;1737;-67
2024/01/22 01:52:09;;;;;;;;;;;;;;;19.80;38.07;100966.28;2085984;28;2178;-68
2024/01/22 01:53:10;;;;;;;;;;;;;;;19.80;38.15;100972.78;2082942;28;1772;-68
2024/01/22 01:54:11;;;;;;;;;;;;;;;19.81;38.09;100970.63;2086522;28;1641;-68
2024/01/22 01:55:13;;;;;;;;;;;;;;;19.79;38.08;100968.41;2089252;28;1637;-68
2024/01/22 01:56:14;;;;;;;;;;;;;;;19.80;38.19;100951.91;2083596;28;2131;-68
2024/01/22 01:57:16;;;;;;;;;;;;;;;19.80;38.24;100961.28;2085699;28;2106;-68
2024/01/22 01:58:17;;;;;;;;;;;;;;;19.81;38.11;100962.78;2082573;28;2141;-68
2024/01/22 01:59:19;;;;;;;;;;;;;;;19.81;38.07;100962.00;2086306;28;1741;-68
2024/01/22 02:00:20;;;;;;;;;;;;;;;19.83;38.12;100959.25;2083957;28;6013;-68
2024/01/22 02:01:22;;;;;;;;;;;;;;;19.82;38.13;100963.50;2081050;28;2182;-68
2024/01/22 02:02:23;;;;;;;;;;;;;;;19.82;38.01;100955.63;2086076;28;1802;-68
2024/01/22 02:03:25;;;;;;;;;;;;;;;19.82;38.12;100957.78;2085029;28;2171;-68
2024/01/22 02:04:27;;;;;;;;;;;;;;;19.82;38.07;100952.03;2081247;28;2098;-68
2024/01/22 02:05:28;;;;;;;;;;;;;;;19.82;37.99;100963.50;2087223;28;1724;-68
2024/01/22 02:06:30;;;;;;;;;;;;;;;19.82;38.05;100949.16;2086059;28;1721;-68
2024/01/22 02:07:31;;;;;;;;;;;;;;;19.83;38.05;100944.88;2080643;28;2410;-67
2024/01/22 02:08:33;;;;;;;;;;;;;;;19.83;38.05;100956.38;2083144;28;1975;-67
2024/01/22 02:09:44;;;;;;;;;;;;;;;19.83;38.13;100953.50;2083886;28;1574;-67
2024/01/22 02:10:46;;;;;;;;;;;;;;;19.82;38.02;100940.53;2082661;28;1693;-67
2024/01/22 02:11:47;;;;;;;;;;;;;;;19.82;38.13;100926.16;2082401;28;2005;-67
2024/01/22 02:12:48;;;;;;;;;;;;;;;19.81;38.15;100924.66;2083750;28;1605;-67
2024/01/22 02:13:50;;;;;;;;;;;;;;;19.81;38.09;100921.78;2082898;28;2525;-68
2024/01/22 02:14:51;;;;;;;;;;;;;;;19.81;38.11;100922.56;2084232;28;2070;-68
2024/01/22 02:15:53;;;;;;;;;;;;;;;19.82;38.16;100920.41;2081379;28;2193;-67
2024/01/22 02:16:54;;;;;;;;;;;;;;;19.82;38.13;100920.41;2083822;28;2047;-67
2024/01/22 02:18:01;;;;;;;;;;;;;;;19.82;38.10;100912.53;2085781;28;1558;-67
2024/01/22 02:19:03;;;;;;;;;;;;;;;19.81;38.06;100910.28;2084746;28;2352;-67
2024/01/22 02:20:05;;;;;;;;;;;;;;;19.81;38.06;100913.16;2083866;28;2472;-67
2024/01/22 02:21:07;;;;;;;;;;;;;;;19.81;38.11;100910.28;2088373;28;1902;-67
2024/01/22 02:22:09;;;;;;;;;;;;;;;19.81;38.09;100924.66;2083448;28;2018;-67
2024/01/22 02:23:10;;;;;;;;;;;;;;;19.80;38.08;100920.31;2083697;28;1710;-67
2024/01/22 02:24:11;;;;;;;;;;;;;;;19.80;38.13;100911.69;2084947;28;1793;-67
2024/01/22 02:25:13;;;;;;;;;;;;;;;19.79;38.10;100913.06;2085385;28;1891;-67
2024/01/22 02:26:15;;;;;;;;;;;;;;;19.79;38.10;100901.56;2083675;28;2076;-67
2024/01/22 02:27:16;;;;;;;;;;;;;;;19.79;38.00;100895.81;2082267;28;2124;-67
2024/01/22 02:28:18;;;;;;;;;;;;;;;19.79;38.16;100898.69;2079181;28;1999;-68
2024/01/22 02:29:19;;;;;;;;;;;;;;;19.78;38.14;100905.84;2084457;28;2051;-68
2024/01/22 02:30:21;;;;;;;;;;;;;;;19.78;38.01;100900.09;2080626;28;6229;-67
2024/01/22 02:31:22;;;;;;;;;;;;;;;19.78;38.12;100885.72;2085221;28;1725;-67
2024/01/22 02:32:24;;;;;;;;;;;;;;;19.78;38.11;100882.84;2082394;28;1775;-67
2024/01/22 02:33:25;;;;;;;;;;;;;;;19.78;38.15;100889.34;2084302;28;2059;-67
2024/01/22 02:34:27;;;;;;;;;;;;;;;19.77;38.22;100881.34;2081756;28;2142;-67
2024/01/22 02:35:28;;;;;;;;;;;;;;;19.78;38.16;100888.59;2084525;28;2132;-67
2024/01/22 02:36:30;;;;;;;;;;;;;;;19.77;38.07;100885.00;2086038;28;1622;-67
2024/01/22 02:37:31;;;;;;;;;;;;;;;19.78;38.11;100889.34;2084303;28;1951;-67
2024/01/22 02:38:33;;;;;;;;;;;;;;;19.78;38.16;100900.09;2082757;28;2069;-67
2024/01/22 02:39:36;;;;;;;;;;;;;;;19.78;38.15;100894.34;2084461;28;1702;-67
2024/01/22 02:40:37;;;;;;;;;;;;;;;19.79;38.14;100898.69;2082947;28;2116;-67
2024/01/22 02:41:39;;;;;;;;;;;;;;;19.79;38.02;100895.81;2081883;28;2052;-68
2024/01/22 02:42:40;;;;;;;;;;;;;;;19.79;38.00;100890.06;2084744;28;2031;-67
2024/01/22 02:43:42;;;;;;;;;;;;;;;19.80;38.10;100885.81;2084688;28;2105;-67
2024/01/22 02:44:45;;;;;;;;;;;;;;;19.80;38.02;100891.56;2081382;28;2043;-67
2024/01/22 02:45:49;;;;;;;;;;;;;;;19.79;38.12;100875.72;2084546;28;1988;-67
2024/01/22 02:46:50;;;;;;;;;;;;;;;19.80;38.08;100868.59;2085082;28;1999;-67
2024/01/22 02:47:52;;;;;;;;;;;;;;;19.80;38.12;100868.59;2083438;28;1987;-67
2024/01/22 02:48:54;;;;;;;;;;;;;;;19.79;38.01;100861.34;2084083;28;2079;-68
2024/01/22 02:49:56;;;;;;;;;;;;;;;19.79;38.09;100861.34;2080732;28;2108;-67
2024/01/22 02:50:57;;;;;;;;;;;;;;;19.78;38.14;100854.13;2083762;28;1709;-67
2024/01/22 02:51:58;;;;;;;;;;;;;;;19.78;38.05;100862.75;2085764;28;1744;-67
2024/01/22 02:53:00;;;;;;;;;;;;;;;19.78;38.15;100874.22;2083586;28;1701;-67
2024/01/22 02:54:01;;;;;;;;;;;;;;;19.78;38.13;100866.34;2082538;28;2049;-67
2024/01/22 02:55:03;;;;;;;;;;;;;;;19.78;38.07;100871.34;2085256;28;1968;-67
2024/01/22 02:56:05;;;;;;;;;;;;;;;19.78;38.11;100871.34;2085421;28;1641;-68
2024/01/22 02:57:06;;;;;;;;;;;;;;;19.77;38.19;100869.84;2086925;28;2139;-67
2024/01/22 02:58:08;;;;;;;;;;;;;;;19.78;38.16;100859.88;2084520;28;2023;-67
2024/01/22 02:59:10;;;;;;;;;;;;;;;19.77;38.13;100869.84;2085459;28;2074;-67
2024/01/22 03:00:11;;;;;;;;;;;;;;;19.78;38.17;100865.63;2083791;28;6134;-67
2024/01/22 03:01:14;;;;;;;;;;;;;;;19.76;38.17;100857.63;2083747;28;1918;-67
2024/01/22 03:02:16;;;;;;;;;;;;;;;19.76;38.17;100856.88;2084584;28;2010;-67
2024/01/22 03:03:17;;;;;;;;;;;;;;;19.77;38.16;100852.63;2081175;28;1997;-67
2024/01/22 03:04:19;;;;;;;;;;;;;;;19.77;38.17;100846.88;2082249;28;2136;-67
2024/01/22 03:05:21;;;;;;;;;;;;;;;19.76;38.11;100842.53;2084638;28;1932;-67
2024/01/22 03:06:23;;;;;;;;;;;;;;;19.75;38.08;100843.94;2081561;28;2027;-67
2024/01/22 03:07:24;;;;;;;;;;;;;;;19.75;38.13;100850.41;2081854;28;1745;-67
2024/01/22 03:08:26;;;;;;;;;;;;;;;19.75;38.24;100850.41;2080781;28;2121;-67
2024/01/22 03:09:27;;;;;;;;;;;;;;;19.75;38.16;100853.28;2085265;28;2020;-67
2024/01/22 03:10:29;;;;;;;;;;;;;;;19.75;38.04;100852.53;2087040;28;1781;-67
2024/01/22 03:11:30;;;;;;;;;;;;;;;19.75;38.00;100855.41;2086041;28;1864;-67
2024/01/22 03:12:31;;;;;;;;;;;;;;;19.75;38.03;100852.53;2084565;28;1983;-67
2024/01/22 03:13:33;;;;;;;;;;;;;;;19.74;38.03;100848.91;2085675;28;2058;-67
2024/01/22 03:14:34;;;;;;;;;;;;;;;19.75;38.09;100826.69;2083009;28;2130;-68
2024/01/22 03:15:36;;;;;;;;;;;;;;;19.75;37.99;100832.44;2080442;28;2107;-68
2024/01/22 03:16:37;;;;;;;;;;;;;;;19.75;38.05;100832.44;2084980;28;1713;-67
2024/01/22 03:17:39;;;;;;;;;;;;;;;19.74;38.05;100831.66;2083176;28;1880;-67
2024/01/22 03:18:40;;;;;;;;;;;;;;;19.73;37.98;100829.47;2083731;28;1948;-67
2024/01/22 03:19:42;;;;;;;;;;;;;;;19.73;37.96;100830.19;2083589;28;2155;-67
2024/01/22 03:20:43;;;;;;;;;;;;;;;19.73;37.90;100835.22;2081473;28;1712;-67
2024/01/22 03:21:45;;;;;;;;;;;;;;;19.72;37.95;100820.06;2084828;28;1981;-67
2024/01/22 03:22:46;;;;;;;;;;;;;;;19.72;37.92;100825.81;2085661;28;1988;-67
2024/01/22 03:23:47;;;;;;;;;;;;;;;19.73;37.92;100826.59;2082367;28;2103;-67
2024/01/22 03:24:49;;;;;;;;;;;;;;;19.73;37.89;100829.47;2084123;28;1952;-68
2024/01/22 03:25:50;;;;;;;;;;;;;;;19.72;38.01;100816.47;2085228;28;1919;-67
2024/01/22 03:26:52;;;;;;;;;;;;;;;19.72;37.78;100822.22;2086044;28;1621;-67
2024/01/22 03:27:54;;;;;;;;;;;;;;;19.71;37.74;100823.63;2083695;28;2054;-67
2024/01/22 03:28:55;;;;;;;;;;;;;;;19.71;37.88;100826.50;2080164;28;2093;-67
2024/01/22 03:29:56;;;;;;;;;;;;;;;19.72;37.83;100828.69;2084906;28;1669;-67
2024/01/22 03:30:58;;;;;;;;;;;;;;;19.71;37.79;100815.00;2082241;28;6038;-67
2024/01/22 03:31:59;;;;;;;;;;;;;;;19.71;37.82;100820.75;2082301;28;1724;-67
2024/01/22 03:33:01;;;;;;;;;;;;;;;19.71;37.78;100815.00;2081434;28;1636;-67
2024/01/22 03:34:02;;;;;;;;;;;;;;;19.70;37.61;100816.38;2084737;28;2079;-67
2024/01/22 03:35:04;;;;;;;;;;;;;;;19.70;37.75;100822.13;2084642;28;2159;-67
2024/01/22 03:36:05;;;;;;;;;;;;;;;19.70;37.78;100822.13;2083791;28;2624;-67
2024/01/22 03:37:07;;;;;;;;;;;;;;;19.70;37.66;100807.75;2081994;28;1785;-67
2024/01/22 03:38:08;;;;;;;;;;;;;;;19.70;37.62;100819.25;2084968;28;1733;-67
2024/01/22 03:39:10;;;;;;;;;;;;;;;19.69;37.64;100809.16;2083857;28;2151;-68
2024/01/22 03:40:14;;;;;;;;;;;;;;;19.69;37.58;100806.28;2080304;28;1688;-67
2024/01/22 03:41:16;;;;;;;;;;;;;;;19.69;37.58;100800.53;2085687;28;1567;-67
2024/01/22 03:42:17;;;;;;;;;;;;;;;19.68;37.64;100782.53;2083387;28;2055;-67
2024/01/22 03:43:19;;;;;;;;;;;;;;;19.67;37.65;100787.50;2085306;28;2035;-67
2024/01/22 03:44:20;;;;;;;;;;;;;;;19.67;37.71;100770.28;2084562;28;2103;-67
2024/01/22 03:45:21;;;;;;;;;;;;;;;19.68;37.58;100796.88;2083207;28;2081;-67
2024/01/22 03:46:23;;;;;;;;;;;;;;;19.67;37.57;100787.50;2081343;28;2027;-67
2024/01/22 03:47:27;;;;;;;;;;;;;;;19.67;37.66;100781.03;2084158;28;1880;-67
2024/01/22 03:48:28;;;;;;;;;;;;;;;19.66;37.74;100773.81;2084534;28;2105;-67
2024/01/22 03:49:30;;;;;;;;;;;;;;;19.67;37.89;100793.25;2088002;28;2042;-67
2024/01/22 03:50:32;;;;;;;;;;;;;;;19.69;38.00;100789.03;2090667;28;2107;-67
2024/01/22 03:51:33;;;;;;;;;;;;;;;19.67;38.01;100758.03;2084198;28;2037;-67
2024/01/22 03:52:34;;;;;;;;;;;;;;;19.67;38.05;100770.28;2088069;28;1633;-67
2024/01/22 03:53:36;;;;;;;;;;;;;;;19.66;38.09;100734.31;2087669;28;1909;-67
2024/01/22 03:54:38;;;;;;;;;;;;;;;19.67;38.02;100735.81;2086353;28;1975;-67
2024/01/22 03:55:39;;;;;;;;;;;;;;;19.67;38.17;100730.06;2084328;28;1816;-67
2024/01/22 03:56:41;;;;;;;;;;;;;;;19.68;38.18;100742.31;2085847;28;1725;-67
2024/01/22 03:57:42;;;;;;;;;;;;;;;19.69;37.93;100717.94;2083170;28;2210;-67
2024/01/22 03:58:43;;;;;;;;;;;;;;;19.70;37.98;100733.06;2087589;28;2055;-67
2024/01/22 03:59:46;;;;;;;;;;;;;;;19.72;37.95;100718.78;2085272;28;1995;-67
2024/01/22 04:00:48;;;;;;;;;;;;;;;19.72;38.08;100722.41;2081923;28;6084;-67
2024/01/22 04:01:49;;;;;;;;;;;;;;;19.74;38.06;100716.00;2085385;28;2397;-67
2024/01/22 04:02:51;;;;;;;;;;;;;;;19.74;37.99;100713.13;2084846;28;2205;-67
2024/01/22 04:03:53;;;;;;;;;;;;;;;19.74;37.97;100716.00;2085842;28;2050;-68
2024/01/22 04:04:54;;;;;;;;;;;;;;;19.75;38.05;100711.75;2086155;28;2092;-67
2024/01/22 04:05:56;;;;;;;;;;;;;;;19.75;38.03;100711.75;2085778;28;2175;-67
2024/01/22 04:06:57;;;;;;;;;;;;;;;19.75;37.95;100706.03;2083135;28;1605;-68
2024/01/22 04:07:59;;;;;;;;;;;;;;;19.75;38.07;100688.78;2082894;28;1792;-68
2024/01/22 04:09:00;;;;;;;;;;;;;;;19.74;38.13;100705.25;2085103;28;2073;-67
2024/01/22 04:10:01;;;;;;;;;;;;;;;19.75;38.13;100708.91;2084006;28;2043;-67
2024/01/22 04:11:03;;;;;;;;;;;;;;;19.76;38.03;100708.22;2082195;28;2012;-68
2024/01/22 04:12:04;;;;;;;;;;;;;;;19.75;38.13;100701.00;2086519;28;2249;-72
2024/01/22 04:13:06;;;;;;;;;;;;;;;19.76;38.04;100704.63;2085004;28;1999;-68
2024/01/22 04:14:07;;;;;;;;;;;;;;;19.76;38.05;100701.75;2085882;28;1918;-68
2024/01/22 04:15:08;;;;;;;;;;;;;;;19.76;38.09;100707.50;2084662;28;2100;-66
2024/01/22 04:16:13;;;;;;;;;;;;;;;19.75;38.12;100706.03;2087454;28;1626;-64
2024/01/22 04:17:15;;;;;;;;;;;;;;;19.75;38.22;100726.13;2087690;28;1673;-64
2024/01/22 04:18:16;;;;;;;;;;;;;;;19.75;38.20;100715.38;2086855;28;1578;-64
2024/01/22 04:19:18;;;;;;;;;;;;;;;19.75;38.17;100711.75;2085822;28;2102;-64
2024/01/22 04:20:19;;;;;;;;;;;;;;;19.75;38.21;100697.41;2084111;28;2053;-64
2024/01/22 04:21:21;;;;;;;;;;;;;;;19.75;38.19;100689.50;2084096;28;1586;-64
2024/01/22 04:22:23;;;;;;;;;;;;;;;19.76;38.13;100704.63;2083660;28;1914;-64
2024/01/22 04:23:24;;;;;;;;;;;;;;;19.76;38.15;100702.47;2083114;28;1997;-64
2024/01/22 04:24:26;;;;;;;;;;;;;;;19.78;38.11;100698.97;2081252;28;2178;-64
2024/01/22 04:25:27;;;;;;;;;;;;;;;19.77;38.16;100685.97;2084665;28;1911;-64
2024/01/22 04:26:28;;;;;;;;;;;;;;;19.77;38.17;100674.47;2084262;28;2083;-64
2024/01/22 04:27:30;;;;;;;;;;;;;;;19.78;38.19;100693.22;2084498;28;2104;-64
2024/01/22 04:28:31;;;;;;;;;;;;;;;19.78;38.20;100705.44;2085916;28;2106;-64
2024/01/22 04:29:34;;;;;;;;;;;;;;;19.78;38.27;100727.69;2092163;28;1810;-64
2024/01/22 04:30:35;;;;;;;;;;;;;;;19.79;38.27;100746.41;2085010;28;5978;-64
2024/01/22 04:31:41;;;;;;;;;;;;;;;19.80;38.17;100747.91;2085102;28;1840;-64
2024/01/22 04:32:42;;;;;;;;;;;;;;;19.80;38.30;100753.66;2084900;28;2067;-64
2024/01/22 04:33:45;;;;;;;;;;;;;;;19.81;38.24;100732.13;2081962;28;2182;-64
2024/01/22 04:34:47;;;;;;;;;;;;;;;19.80;38.25;100724.91;2080727;28;2066;-64
2024/01/22 04:35:49;;;;;;;;;;;;;;;19.80;38.09;100730.66;2084819;28;1871;-64
2024/01/22 04:36:51;;;;;;;;;;;;;;;19.79;38.23;100735.69;2085783;28;1594;-64
2024/01/22 04:37:53;;;;;;;;;;;;;;;19.80;38.16;100736.41;2101450;28;1616;-64
2024/01/22 04:38:54;;;;;;;;;;;;;;;19.80;38.24;100719.19;2101066;28;1908;-64
2024/01/22 04:40:07;;;;;;;;;;;;;;;19.79;38.29;100715.56;2086591;28;1612;-64
2024/01/22 04:41:08;;;;;;;;;;;;;;;19.78;38.23;100714.06;2081789;28;1993;-64
2024/01/22 04:42:10;;;;;;;;;;;;;;;19.78;38.20;100693.22;2080308;28;2004;-64
2024/01/22 04:43:11;;;;;;;;;;;;;;;19.79;38.35;100700.44;2085577;28;1859;-64
2024/01/22 04:44:12;;;;;;;;;;;;;;;19.78;38.33;100687.47;2083775;28;1889;-64
2024/01/22 04:45:14;;;;;;;;;;;;;;;19.78;38.31;100702.56;2082597;28;1929;-64
2024/01/22 04:46:16;;;;;;;;;;;;;;;19.78;38.33;100693.22;2087821;28;1606;-64
2024/01/22 04:47:18;;;;;;;;;;;;;;;19.78;38.26;100687.47;2083520;28;1904;-64
2024/01/22 04:48:20;;;;;;;;;;;;;;;19.79;38.20;100671.72;2082611;28;1629;-64
2024/01/22 04:49:21;;;;;;;;;;;;;;;19.78;38.29;100668.09;2083589;28;1933;-64
2024/01/22 04:50:23;;;;;;;;;;;;;;;19.79;38.21;100642.97;2083919;28;1696;-64
2024/01/22 04:51:24;;;;;;;;;;;;;;;19.79;38.38;100614.25;2080993;28;1932;-64
2024/01/22 04:52:26;;;;;;;;;;;;;;;19.79;38.25;100591.25;2081979;28;1976;-64
2024/01/22 04:53:27;;;;;;;;;;;;;;;19.80;38.29;100575.53;2083087;28;1985;-64
2024/01/22 04:54:29;;;;;;;;;;;;;;;19.80;38.21;100566.91;2082949;28;2162;-64
2024/01/22 04:55:30;;;;;;;;;;;;;;;19.81;38.22;100554.00;2085579;28;1851;-64
2024/01/22 04:56:40;;;;;;;;;;;;;;;19.81;38.08;100542.50;2083644;28;1971;-64
2024/01/22 04:57:41;;;;;;;;;;;;;;;19.81;38.30;100602.84;2081943;28;1987;-64
2024/01/22 04:58:42;;;;;;;;;;;;;;;19.83;38.25;100608.69;2082726;28;2052;-64
2024/01/22 04:59:44;;;;;;;;;;;;;;;19.82;38.23;100587.09;2084516;28;2454;-64
2024/01/22 05:00:46;;;;;;;;;;;;;;;19.82;38.36;100601.47;2081753;28;6110;-64
2024/01/22 05:01:47;;;;;;;;;;;;;;;19.82;38.29;100607.22;2084465;28;2156;-64
2024/01/22 05:02:48;;;;;;;;;;;;;;;19.83;38.26;100611.56;2083811;28;2451;-64
2024/01/22 05:03:51;;;;;;;;;;;;;;;19.83;38.21;100597.19;2083848;28;1848;-64
2024/01/22 05:04:54;;;;;;;;;;;;;;;19.82;38.32;100584.22;2083042;28;1816;-64
2024/01/22 05:05:55;;;;;;;;;;;;;;;19.83;38.29;100585.69;2084975;28;1872;-64
2024/01/22 05:06:57;;;;;;;;;;;;;;;19.83;38.33;100591.44;2084613;28;1728;-64
2024/01/22 05:07:58;;;;;;;;;;;;;;;19.83;38.37;100591.44;2083865;28;1876;-64
2024/01/22 05:08:59;;;;;;;;;;;;;;;19.83;38.29;100597.19;2087081;28;1885;-64
2024/01/22 05:10:09;;;;;;;;;;;;;;;19.82;38.24;100595.72;2086921;28;1621;-64
2024/01/22 05:11:11;;;;;;;;;;;;;;;19.81;38.29;100586.38;2083616;28;2137;-64
2024/01/22 05:12:12;;;;;;;;;;;;;;;19.81;38.36;100574.88;2082611;28;1937;-64
2024/01/22 05:13:13;;;;;;;;;;;;;;;19.81;38.36;100577.75;2084466;28;1921;-64
2024/01/22 05:14:15;;;;;;;;;;;;;;;19.81;38.38;100571.25;2085432;28;1657;-64
2024/01/22 05:15:16;;;;;;;;;;;;;;;19.81;38.40;100565.50;2085322;28;1985;-64
2024/01/22 05:16:18;;;;;;;;;;;;;;;19.81;38.44;100565.50;2085386;28;1785;-64
2024/01/22 05:17:21;;;;;;;;;;;;;;;19.80;38.40;100569.78;2084264;28;1593;-64
2024/01/22 05:18:22;;;;;;;;;;;;;;;19.80;38.38;100558.28;2080464;28;1948;-64
2024/01/22 05:19:25;;;;;;;;;;;;;;;19.80;38.38;100553.28;2083742;28;2175;-64
2024/01/22 05:20:26;;;;;;;;;;;;;;;19.80;38.29;100538.16;2089029;28;2016;-63
2024/01/22 05:21:28;;;;;;;;;;;;;;;19.80;38.46;100546.78;2090137;28;1951;-64